createdAt,value
2023-01-19T00:16:39.270Z,21.40
2023-01-19T00:36:39.007Z,14.60
2023-01-19T00:56:38.709Z,16.00
2023-01-19T01:16:38.511Z,18.10
2023-01-19T01:36:38.223Z,21.10
2023-01-19T01:56:37.905Z,16.80
2023-01-19T02:16:37.673Z,21.20
2023-01-19T02:36:37.357Z,16.20
2023-01-19T02:56:37.090Z,20.40
2023-01-19T03:16:36.840Z,17.50
2023-01-19T03:36:36.555Z,13.70
2023-01-19T03:56:36.298Z,18.10
2023-01-19T04:16:36.004Z,21.10
2023-01-19T04:36:35.731Z,17.60
2023-01-19T04:56:35.462Z,21.60
2023-01-19T05:16:35.198Z,18.40
2023-01-19T05:36:34.920Z,22.10
2023-01-19T05:56:34.678Z,16.80
2023-01-19T06:16:34.421Z,27.50
2023-01-19T06:36:34.131Z,20.40
2023-01-19T06:56:33.837Z,25.20
2023-01-19T07:16:33.655Z,31.70
2023-01-19T07:36:33.299Z,27.50
2023-01-19T07:56:33.963Z,27.70
2023-01-19T08:16:32.805Z,25.70
2023-01-19T08:36:32.540Z,28.30
2023-01-19T08:56:32.212Z,32.80
2023-01-19T09:16:31.953Z,23.40
2023-01-19T09:36:31.678Z,29.70
2023-01-19T09:56:31.416Z,30.00
2023-01-19T10:16:31.123Z,22.70
2023-01-19T10:36:30.858Z,20.70
2023-01-19T10:56:30.610Z,12.80
2023-01-19T11:16:30.362Z,12.60
2023-01-19T11:36:30.067Z,8.40
2023-01-19T11:56:29.761Z,5.20
2023-01-19T12:16:29.523Z,1.40
2023-01-19T12:36:29.272Z,2.10
2023-01-19T12:56:28.962Z,0.80
2023-01-19T13:16:28.705Z,1.70
2023-01-19T13:36:28.421Z,1.20
2023-01-19T13:56:28.147Z,2.50
2023-01-19T14:16:27.941Z,3.50
2023-01-19T14:36:27.597Z,0.50
2023-01-19T14:56:27.332Z,0.40
2023-01-19T15:16:27.095Z,1.40
2023-01-19T15:36:26.781Z,0.90
2023-01-19T15:56:26.523Z,0.90
2023-01-19T16:16:26.289Z,0.60
2023-01-19T16:36:25.973Z,0.90
2023-01-19T16:56:25.770Z,1.10
2023-01-19T17:16:25.444Z,0.80
2023-01-19T17:36:25.181Z,2.50
2023-01-19T17:56:24.866Z,1.20
2023-01-19T18:16:25.603Z,0.30
2023-01-19T18:36:24.337Z,1.30
2023-01-19T18:56:24.071Z,1.20
2023-01-19T19:16:23.920Z,1.40
2023-01-19T19:36:23.523Z,1.60
2023-01-19T19:56:23.296Z,1.60
2023-01-19T20:16:23.227Z,1.10
2023-01-19T20:36:22.716Z,1.30
2023-01-19T20:56:22.481Z,2.50
2023-01-19T21:16:22.306Z,1.10
2023-01-19T21:36:21.938Z,1.90
2023-01-19T21:56:21.663Z,3.40
2023-01-19T22:16:21.400Z,1.80
2023-01-19T22:36:21.118Z,1.60
2023-01-19T22:56:20.836Z,1.50
2023-01-19T23:16:20.566Z,3.90
2023-01-19T23:36:20.321Z,3.20
2023-01-19T23:56:20.012Z,4.30
